Airfield :
LOGIN :

Register | Disclaimer

   EN    FR    IT 

 










Legend :    VFR   Marginal VFR   IFR   Intensive IFR   Very Intensive IFR
Visi :
Ceiling :
>= 8 km
>= 3000ft
5 to 8 km
1000 to 3000 ft
1500m to 5 km
500 to 1000 ft
800 to 1500m
200 to 500 ft
< 800m
< 200 ft
Symbols :   Thunderstorms  Fog  Heavy snow  Heavy precipitations  Wind > 20 kt
SIGMETs :     Misc.  Thunderstorms  Icing  Turbulence  Mountain Waves  Volcanic Ashes







- Airport Elevation : 245 ft
- IATA code : BIQ
- Download approach charts


LFBZ - Biarritz

CURRENT METAR :
  • 230500Z AUTO 20003KT CAVOK 08/04 Q1019 NOSIG

EXPIRED METARs :
  • 230430Z AUTO 20003KT CAVOK 08/05 Q1019 NOSIG
  • 230400Z AUTO 18003KT CAVOK 08/05 Q1019 NOSIG
  • 230330Z AUTO 19004KT CAVOK 08/06 Q1019 NOSIG
  • 230300Z AUTO 19003KT CAVOK 09/06 Q1019 NOSIG
  • 230230Z AUTO 17003KT CAVOK 09/06 Q1019 NOSIG

TAF TAF LFBZ
Valid from the 23 at 00:00 until the 24 at 00:00 UTC


222300Z 2300/2324 20005KT CAVOK
PROB40 2312/2318 33010KT
No reported NOTAMs for that airfield.



MET'MAP, your aeronautical weather chart ! - Copyright ORBIFLY December 2007 - Disclaimer

ORBIFLY MET'MAP TEAM :

Programming & Development : Alexandra Zaïnal
Concept & Development : Baudouin d'Aumeries
Co-Development & Prog : Marc-Olivier Méhu
Technical & hardware support : Manuel Goepfert

Contact : metmap@orbifly.com




SOURCES & CREDITS :

   NOAA